Back to Top

Language: 

Current Local METAR Station Weather Reports...

Local METAR Reports

Local METAR Reports

 

EGCN - Doncaster Sheffield Airport, United Kingdom
Distance from station: E 20mi, 32km
Updated: Tue, 23-Jan-2018 1:20pm GMT
Mostly Cloudy
Mostly Cloudy
 Wind from SW
Wind: SW 23 mph , 37 km/h
Temperature: 14°C
Dew Point: 10°C
Humidity: 77%
Barometer: 1007 hPa
Clouds: Mostly Cloudy
Visibility: 6 miles , 10 km
Cloud details: Mostly Cloudy 701 m
2018/01/23 13:20 EGCN 231320Z 22020KT 9999 BKN023 14/10 Q1007
EGNM - Leeds Bradford International, United Kingdom
Distance from station: NNW 24mi, 39km
Updated: Tue, 23-Jan-2018 1:20pm GMT
Mostly Cloudy
Mostly Cloudy
 Wind from SW
Wind: SW 12 mph , 19 km/h, Gust: 25 mph , 41 km/h
Temperature: 11°C
Dew Point: 8°C
Humidity: 82%
Barometer: 1004 hPa
Clouds: Mostly Cloudy
Visibility: 6 miles , 10 km
Cloud details: Mostly Cloudy 549 m
2018/01/23 13:20 EGNM 231320Z 22010G22KT 180V260 9999 BKN018 11/08 Q1004
 
EGCC - Manchester International, United Kingdom
Distance from station: WSW 35mi, 56km
Updated: Tue, 23-Jan-2018 1:20pm GMT
Overcast
Overcast
 Wind from SSW
Wind: SSW 14 mph , 22 km/h, Gust: 25 mph , 41 km/h
Temperature: 12°C
Dew Point: 9°C
Humidity: 82%
Barometer: 1006 hPa
Clouds: Overcast
Visibility: 6 miles , 10 km
Cloud details: Partly Cloudy 732 m
Mostly Cloudy 914 m
Overcast 1189 m
2018/01/23 13:20 EGCC 231320Z AUTO 20012G22KT 150V230 9999 SCT024 BKN030 OVC039 12/09 Q1006 NOSIG
EGXU - Linton-On-Ouse RAF, United Kingdom
Distance from station: NNE 37mi, 60km
Updated: Tue, 23-Jan-2018 12:50pm GMT
Mostly Cloudy
Mostly Cloudy
 Wind from SSW
Wind: SSW 20 mph , 31 km/h
Temperature: 13°C
Dew Point: 8°C
Humidity: 72%
Barometer: 1004 hPa
Clouds: Mostly Cloudy
Visibility: 6 miles , 10 km
Cloud details: Few Clouds 549 m
Mostly Cloudy 610 m
2018/01/23 12:50 EGXU 231250Z 21017KT 9999 FEW018 BKN020 13/08 Q1004 WHT TEMPO 21017G27KT WHT
 
EGXP - Scampton RAF, United Kingdom
Distance from station: ESE 41mi, 66km
Updated: Tue, 23-Jan-2018 12:50pm GMT
Mostly Cloudy
Mostly Cloudy
 Wind from SW
Wind: SW 21 mph , 33 km/h
Temperature: 12°C
Dew Point: 10°C
Humidity: 88%
Barometer: 1007 hPa
Clouds: Mostly Cloudy
Visibility: 6 miles , 10 km
Cloud details: Partly Cloudy 488 m
Mostly Cloudy 884 m
2018/01/23 12:50 EGXP 231250Z 22018KT 9999 SCT016 BKN029 12/10 Q1007 WHT
EGNJ - Humberside Airport, United Kingdom
Distance from station: E 46mi, 74km
Updated: Tue, 23-Jan-2018 1:20pm GMT
Partly Cloudy
Partly Cloudy
 Wind from SSW
Wind: SSW 14 mph , 22 km/h
Temperature: 13°C
Dew Point: 11°C
Humidity: 88%
Barometer: 1006 hPa
Clouds: Partly Cloudy
Visibility: 6 miles , 10 km
Cloud details: Few Clouds 274 m
Partly Cloudy 732 m
2018/01/23 13:20 EGNJ 231320Z 21012KT 9999 FEW009 SCT024 13/11 Q1006
 
EGXW - Waddington RAF, United Kingdom
Distance from station: ESE 46mi, 74km
Updated: Tue, 23-Jan-2018 1:19pm GMT
Mostly Cloudy
Mostly Cloudy
 Wind from SW
Wind: SW 21 mph , 33 km/h
Temperature: 13°C
Dew Point: 9°C
Humidity: 77%
Barometer: 1007 hPa
Clouds: Mostly Cloudy
Visibility: 6 miles , 10 km
Cloud details: Few Clouds 610 m
Partly Cloudy 1219 m
Mostly Cloudy 7620 m
2018/01/23 13:19 EGXW 231319Z 23018KT 9999 FEW020 SCT040 BKN250 13/09 Q1007 BLU TEMPO SCT020 WHT
EGXZ - Topcliffe RAF, United Kingdom
Distance from station: N 46mi, 75km
Updated: Tue, 23-Jan-2018 12:50pm GMT
Overcast
Overcast
 Wind from SSW
Wind: SSW 15 mph , 24 km/h
Temperature: 13°C
Dew Point: 9°C
Humidity: 77%
Barometer: 1004 hPa
Clouds: Overcast
Visibility: 6 miles , 10 km
Cloud details: Overcast 610 m
2018/01/23 12:50 EGXZ 231250Z AUTO 20013KT 9999 OVC020/// 13/09 Q1004
 
EGXV - Leconfield, United Kingdom
Distance from station: ENE 48mi, 77km
Updated: Tue, 23-Jan-2018 12:50pm GMT
Partly Cloudy
Partly Cloudy
 Wind from SW
Wind: SW 22 mph , 35 km/h, Gust: 35 mph , 56 km/h
Temperature: 12°C
Dew Point: 10°C
Humidity: 88%
Barometer: 1004 hPa
Clouds: Partly Cloudy
Visibility: 6 miles , 10 km
Cloud details: Mostly Cloudy 792 m
Partly Cloudy 5486 m
2018/01/23 12:50 EGXV 231250Z AUTO 22019G30KT 9999 BKN026/// SCT180/// 12/10 Q1004
EGNX - East Midlands, United Kingdom
Distance from station: S 50mi, 80km
Updated: Tue, 23-Jan-2018 12:50pm GMT
Mostly Cloudy
Mostly Cloudy
 Wind from SW
Wind: SW 21 mph , 33 km/h
Temperature: 12°C
Dew Point: 9°C
Humidity: 82%
Barometer: 1008 hPa
Clouds: Mostly Cloudy
Visibility: 6 miles , 10 km
Cloud details: Few Clouds 366 m
Mostly Cloudy 945 m
2018/01/23 12:50 EGNX 231250Z 22018KT 9999 FEW012 BKN031 12/09 Q1008

Metar display script from Saratoga-Weather.org

Data updates at regular intervals.